Aérodrome :
LOGIN :

S'inscrire | Disclaimer

   EN    FR    IT 

 










Légende :    VFR   VFR Marginal   IFR   IFR Intensif   IFR Très Intensif
Visi : 
Plafond : 
>= 8 km
>= 3000ft
5 à 8 km
1000 à 3000 ft
1500m à 5 km
500 à 1000 ft
800 à 1500m
200 à 500 ft
< 800m
< 200 ft
Symboles :   Orages  Brouillard  Fortes neiges  Fortes précipitations  Vent > 20 kt
SIGMETs :   Divers  Orages  Givrage  Turbulence  Onde Orograph.  Cendres Volcan.







- Altitude de l'aérodrome : 90 ft
- Code IATA : NTE
- Voir les cartes d'approche


LFRS - Nantes

DERNIER METAR :
  • 232130Z AUTO 22010KT 180V260 9000 OVC005 12/12 Q1024 TEMPO 2500 -DZ

METARs EXPIRÉS :
  • 232100Z AUTO 23009KT 190V260 6000 -DZ OVC004 12/12 Q1024 TEMPO 2500 -DZ
  • 232030Z AUTO 23009KT 200V260 5000 BR OVC004 12/12 Q1024 TEMPO 2500 -DZ
  • 232000Z AUTO 23010KT 200V260 4900 -RA BR OVC004 12/11 Q1024 TEMPO 2500 -DZ
  • 231930Z AUTO 23009KT 7000 OVC006 12/12 Q1025 TEMPO 2500 -DZ OVC003
  • 231900Z AUTO 23009KT 9000 4200 OVC007 12/12 Q1025 TEMPO 2500 -DZ OVC003
  • 231830Z AUTO 23010KT 200V270 9999 OVC006 12/12 Q1025 TEMPO 2500 -DZ OVC003

TAF TAF LFRS
Valide du 23 à 18h jusqu'au 25 à 00h UTC


231700Z 2318/2424 22010KT 9999 BKN006
TEMPO 2318/2406 2500 -DZ OVC003
TEMPO 2406/2414 BKN012
TEMPO 2410/2421 22016G28KT
BECMG 2417/2420 4000 -RA BKN007 BKN030
ATIS : +33 2 40 05 12 74
Pas de NOTAMs connus pour ce terrain.



MET'MAP, la Météo Aéronautique d'un coup d'oeil ! - Copyright ORBIFLY Décembre 2007 - Disclaimer

ORBIFLY MET'MAP TEAM :

Programmation & Développement : Alexandra Zaïnal
Conception & Développement : Baudouin d'Aumeries
Co-Programmation & Développement : Marc-Olivier Méhu
Soutien technique & logistique : Manuel Goepfert

Contact : metmap@orbifly.com




SOURCES & CREDITS :

   NOAA